createdAt,value
2022-09-25T00:00:19.707Z,8.99
2022-09-25T00:02:48.569Z,8.98
2022-09-25T00:05:17.975Z,8.98
2022-09-25T00:07:47.549Z,8.96
2022-09-25T00:10:17.663Z,8.93
2022-09-25T00:12:46.665Z,8.93
2022-09-25T00:15:19.752Z,8.92
2022-09-25T00:17:50.354Z,8.92
2022-09-25T00:20:20.565Z,8.87
2022-09-25T00:22:49.359Z,8.80
2022-09-25T00:25:20.172Z,8.81
2022-09-25T00:27:50.132Z,8.84
2022-09-25T00:30:19.681Z,8.84
2022-09-25T00:32:48.682Z,8.80
2022-09-25T00:35:18.700Z,8.74
2022-09-25T00:37:48.861Z,8.69
2022-09-25T00:40:19.427Z,8.66
2022-09-25T00:42:48.067Z,8.62
2022-09-25T00:45:20.929Z,8.62
2022-09-25T00:47:55.337Z,8.62
2022-09-25T00:50:34.666Z,8.63
2022-09-25T00:53:10.571Z,8.64
2022-09-25T00:55:39.824Z,8.63
2022-09-25T00:58:09.144Z,8.61
2022-09-25T01:00:38.015Z,8.58
2022-09-25T01:03:07.158Z,8.54
2022-09-25T01:05:37.812Z,8.51
2022-09-25T01:08:08.332Z,8.52
2022-09-25T01:10:38.107Z,8.50
2022-09-25T01:13:06.966Z,8.53
2022-09-25T01:16:02.334Z,8.55
2022-09-25T01:19:00.824Z,8.54
2022-09-25T01:21:44.738Z,8.56
2022-09-25T01:24:41.147Z,8.56
2022-09-25T01:27:33.641Z,8.53
2022-09-25T01:30:18.851Z,8.51
2022-09-25T01:33:10.139Z,8.49
2022-09-25T01:35:51.933Z,8.43
2022-09-25T01:38:44.587Z,8.37
2022-09-25T01:41:24.923Z,8.31
2022-09-25T01:44:17.765Z,8.27
2022-09-25T01:46:50.759Z,8.25
2022-09-25T01:49:31.919Z,8.23
2022-09-25T01:52:03.265Z,8.18
2022-09-25T01:54:42.231Z,8.14
2022-09-25T01:57:31.700Z,8.12
2022-09-25T02:00:12.006Z,8.12
2022-09-25T02:02:48.138Z,8.12
2022-09-25T02:05:36.065Z,8.12
2022-09-25T02:08:10.068Z,8.13
2022-09-25T02:10:47.268Z,8.12
2022-09-25T02:13:17.522Z,8.12
2022-09-25T02:15:56.861Z,8.08
2022-09-25T02:18:44.664Z,8.07
2022-09-25T02:21:37.488Z,8.04
2022-09-25T02:24:20.733Z,7.95
2022-09-25T02:26:50.379Z,7.88
2022-09-25T02:29:21.923Z,7.82
2022-09-25T02:31:59.670Z,7.78
2022-09-25T02:34:28.976Z,7.77
2022-09-25T02:36:59.436Z,7.78
2022-09-25T02:39:30.321Z,7.80
2022-09-25T02:42:21.297Z,7.81
2022-09-25T02:45:23.456Z,7.81
2022-09-25T02:47:58.160Z,7.78
2022-09-25T02:50:54.081Z,7.81
2022-09-25T02:53:46.656Z,7.81
2022-09-25T02:56:27.175Z,7.82
2022-09-25T02:58:58.558Z,7.80
2022-09-25T03:01:28.816Z,7.79
2022-09-25T03:03:59.136Z,7.76
2022-09-25T03:06:28.662Z,7.73
2022-09-25T03:08:57.595Z,7.73
2022-09-25T03:11:27.109Z,7.77
2022-09-25T03:14:02.360Z,7.79
2022-09-25T03:16:53.160Z,7.79
2022-09-25T03:19:23.085Z,7.81
2022-09-25T03:21:52.035Z,7.84
2022-09-25T03:24:21.866Z,7.83
2022-09-25T03:26:51.252Z,7.83
2022-09-25T03:29:21.116Z,7.84
2022-09-25T03:31:50.334Z,7.86
2022-09-25T03:34:19.279Z,7.85
2022-09-25T03:36:50.566Z,7.81
2022-09-25T03:39:19.695Z,7.75
2022-09-25T03:41:48.802Z,7.72
2022-09-25T03:44:18.633Z,7.71
2022-09-25T03:46:48.580Z,7.71
2022-09-25T03:49:18.156Z,7.71
2022-09-25T03:51:47.871Z,7.73
2022-09-25T03:54:18.795Z,7.71
2022-09-25T03:56:48.765Z,7.71
2022-09-25T03:59:17.688Z,7.72
2022-09-25T04:01:47.256Z,7.70
2022-09-25T04:04:16.033Z,7.68
2022-09-25T04:06:45.642Z,7.66
2022-09-25T04:09:16.628Z,7.62
2022-09-25T04:11:46.380Z,7.64
2022-09-25T04:14:17.396Z,7.69
2022-09-25T04:16:46.913Z,7.68
2022-09-25T04:19:16.352Z,7.68
2022-09-25T04:21:45.830Z,7.67
2022-09-25T04:24:33.582Z,7.67
2022-09-25T04:27:03.516Z,7.67
2022-09-25T04:29:32.627Z,7.69
2022-09-25T04:32:22.538Z,7.69
2022-09-25T04:34:52.648Z,7.67
2022-09-25T04:37:26.122Z,7.66
2022-09-25T04:39:58.575Z,7.66
2022-09-25T04:42:28.406Z,7.65
2022-09-25T04:44:58.355Z,7.66
2022-09-25T04:47:31.716Z,7.71
2022-09-25T04:50:00.790Z,7.74
2022-09-25T04:52:31.519Z,7.74
2022-09-25T04:55:00.896Z,7.76
2022-09-25T04:57:53.975Z,7.78
2022-09-25T05:00:05.667Z,7.81
2022-09-25T05:02:35.122Z,7.86
2022-09-25T05:05:04.851Z,7.87
2022-09-25T05:07:35.302Z,7.89
2022-09-25T05:10:08.410Z,7.89
2022-09-25T05:12:37.894Z,7.90
2022-09-25T05:15:09.923Z,7.92
2022-09-25T05:17:38.678Z,7.98
2022-09-25T05:20:09.436Z,7.99
2022-09-25T05:22:39.503Z,8.03
2022-09-25T05:25:09.981Z,8.06
2022-09-25T05:27:41.320Z,8.09
2022-09-25T05:30:11.400Z,8.11
2022-09-25T05:32:40.616Z,8.15
2022-09-25T05:35:11.661Z,8.17
2022-09-25T05:37:40.661Z,8.21
2022-09-25T05:40:11.181Z,8.26
2022-09-25T05:42:40.610Z,8.32
2022-09-25T05:45:12.099Z,8.35
2022-09-25T05:47:41.748Z,8.38
2022-09-25T05:50:12.962Z,8.40
2022-09-25T05:52:42.459Z,8.39
2022-09-25T05:55:11.577Z,8.43
2022-09-25T05:57:40.530Z,8.46
2022-09-25T06:00:11.170Z,8.50
2022-09-25T06:02:44.655Z,8.54
2022-09-25T06:05:14.647Z,8.61
2022-09-25T06:07:44.038Z,8.64
2022-09-25T06:10:13.546Z,8.71
2022-09-25T06:12:42.663Z,8.77
2022-09-25T06:15:11.860Z,8.82
2022-09-25T06:17:42.336Z,8.88
2022-09-25T06:20:15.854Z,8.94
2022-09-25T06:22:43.989Z,8.99
2022-09-25T06:25:14.643Z,9.07
2022-09-25T06:27:43.825Z,9.13
2022-09-25T06:30:13.722Z,9.18
2022-09-25T06:32:42.496Z,9.25
2022-09-25T06:35:11.537Z,9.31
2022-09-25T06:37:40.926Z,9.38
2022-09-25T06:40:10.308Z,9.44
2022-09-25T06:42:40.732Z,9.51
2022-09-25T06:45:11.312Z,9.57
2022-09-25T06:47:40.657Z,9.64
2022-09-25T06:50:11.741Z,9.72
2022-09-25T06:52:43.787Z,9.78
2022-09-25T06:55:13.082Z,9.84
2022-09-25T06:57:44.005Z,9.92
2022-09-25T07:00:13.822Z,9.99
2022-09-25T07:03:02.311Z,10.03
2022-09-25T07:05:31.054Z,10.11
2022-09-25T07:08:00.442Z,10.17
2022-09-25T07:10:29.529Z,10.22
2022-09-25T07:12:59.417Z,10.30
2022-09-25T07:15:28.375Z,10.36
2022-09-25T07:17:57.369Z,10.43
2022-09-25T07:20:26.432Z,10.46
2022-09-25T07:23:04.413Z,10.52
2022-09-25T07:25:33.140Z,10.57
2022-09-25T07:28:03.233Z,10.63
2022-09-25T07:30:32.374Z,10.71
2022-09-25T07:33:02.423Z,10.79
2022-09-25T07:35:31.689Z,10.88
2022-09-25T07:38:01.125Z,10.95
2022-09-25T07:40:31.999Z,11.01
2022-09-25T07:43:01.965Z,11.12
2022-09-25T07:45:30.994Z,11.33
2022-09-25T07:48:01.331Z,11.78
2022-09-25T07:50:31.784Z,12.35
2022-09-25T07:53:03.286Z,12.93
2022-09-25T07:55:34.315Z,13.47
2022-09-25T07:58:03.491Z,13.98
2022-09-25T08:00:33.287Z,14.47
2022-09-25T08:03:02.348Z,14.91
2022-09-25T08:05:33.312Z,15.26
2022-09-25T08:08:03.696Z,15.59
2022-09-25T08:10:33.215Z,15.87
2022-09-25T08:13:01.927Z,16.13
2022-09-25T08:15:31.303Z,16.41
2022-09-25T08:18:00.618Z,16.61
2022-09-25T08:20:30.404Z,16.75
2022-09-25T08:23:00.676Z,16.95
2022-09-25T08:25:29.593Z,17.04
2022-09-25T08:27:58.327Z,17.13
2022-09-25T08:30:27.462Z,17.15
2022-09-25T08:32:56.677Z,17.17
2022-09-25T08:35:27.866Z,17.18
2022-09-25T08:37:58.591Z,17.21
2022-09-25T08:40:28.600Z,17.27
2022-09-25T08:42:57.678Z,17.28
2022-09-25T08:45:53.960Z,17.07
2022-09-25T08:48:46.672Z,16.93
2022-09-25T08:51:16.364Z,16.82
2022-09-25T08:53:46.192Z,16.57
2022-09-25T08:56:15.295Z,16.24
2022-09-25T08:59:03.885Z,16.02
2022-09-25T09:01:44.527Z,15.86
2022-09-25T09:04:26.221Z,15.67
2022-09-25T09:07:25.253Z,15.55
2022-09-25T09:09:47.353Z,15.42
2022-09-25T09:12:24.327Z,15.30
2022-09-25T09:14:58.935Z,15.25
2022-09-25T09:17:28.177Z,15.21
2022-09-25T09:20:08.722Z,15.17
2022-09-25T09:22:42.762Z,15.07
2022-09-25T09:25:30.961Z,14.99
2022-09-25T09:28:38.959Z,14.93
2022-09-25T09:31:31.542Z,14.89
2022-09-25T09:34:20.661Z,14.90
2022-09-25T09:36:55.015Z,14.90
2022-09-25T09:39:47.160Z,14.91
2022-09-25T09:42:36.476Z,14.99
2022-09-25T09:45:21.390Z,15.06
2022-09-25T09:48:10.464Z,15.06
2022-09-25T09:50:54.820Z,15.03
2022-09-25T09:53:52.301Z,14.99
2022-09-25T09:56:30.050Z,15.02
2022-09-25T09:59:15.660Z,15.02
2022-09-25T10:01:45.583Z,15.07
2022-09-25T10:04:24.630Z,15.19
2022-09-25T10:07:03.626Z,15.27
2022-09-25T10:09:33.188Z,15.35
2022-09-25T10:12:09.257Z,15.37
2022-09-25T10:14:42.801Z,15.35
2022-09-25T10:17:11.609Z,15.38
2022-09-25T10:19:53.233Z,15.43
2022-09-25T10:22:36.903Z,15.46
2022-09-25T10:25:07.775Z,15.49
2022-09-25T10:27:44.011Z,15.51
2022-09-25T10:30:20.102Z,15.54
2022-09-25T10:33:06.997Z,15.60
2022-09-25T10:35:43.491Z,15.66
2022-09-25T10:38:29.637Z,15.67
2022-09-25T10:41:11.828Z,15.68
2022-09-25T10:44:00.706Z,15.70
2022-09-25T10:46:54.108Z,15.74
2022-09-25T10:49:44.183Z,15.79
2022-09-25T10:52:20.923Z,15.81
2022-09-25T10:54:51.467Z,15.82
2022-09-25T10:57:35.485Z,15.79
2022-09-25T11:00:10.509Z,15.73
2022-09-25T11:02:41.802Z,15.67
2022-09-25T11:05:22.209Z,15.63
2022-09-25T11:07:54.793Z,15.57
2022-09-25T11:10:33.941Z,15.52
2022-09-25T11:13:10.397Z,15.49
2022-09-25T11:18:10.532Z,15.58
2022-09-25T11:20:42.141Z,15.64
2022-09-25T11:23:43.222Z,15.66
2022-09-25T11:26:25.925Z,15.64
2022-09-25T11:29:18.852Z,15.61
2022-09-25T11:32:00.877Z,15.59
2022-09-25T11:34:57.697Z,15.58
2022-09-25T11:37:53.443Z,15.57
2022-09-25T11:40:55.137Z,15.52
2022-09-25T11:43:44.516Z,15.47
2022-09-25T11:46:28.452Z,15.43
2022-09-25T11:49:31.101Z,15.38
2022-09-25T11:52:27.638Z,15.35
2022-09-25T11:55:43.373Z,15.34
2022-09-25T11:58:53.705Z,15.35
2022-09-25T12:01:33.912Z,15.31
2022-09-25T12:04:20.692Z,15.29
2022-09-25T12:07:17.220Z,15.31
2022-09-25T12:10:14.167Z,15.39
2022-09-25T12:13:04.086Z,15.46
2022-09-25T12:15:54.630Z,15.49
2022-09-25T12:19:03.269Z,15.50
2022-09-25T12:21:49.669Z,15.50
2022-09-25T12:24:51.087Z,15.50
2022-09-25T12:27:26.001Z,15.50
2022-09-25T12:30:21.190Z,15.57
2022-09-25T12:33:14.778Z,15.63
2022-09-25T12:36:05.015Z,15.66
2022-09-25T12:38:45.469Z,15.67
2022-09-25T12:41:19.958Z,15.64
2022-09-25T12:43:59.106Z,15.61
2022-09-25T12:46:35.877Z,15.58
2022-09-25T12:49:34.518Z,15.57
2022-09-25T12:52:13.028Z,15.55
2022-09-25T12:54:52.887Z,15.53
2022-09-25T12:57:32.777Z,15.52
2022-09-25T13:00:23.966Z,15.49
2022-09-25T13:03:11.436Z,15.49
2022-09-25T13:05:50.446Z,15.46
2022-09-25T13:08:49.372Z,15.42
2022-09-25T13:11:32.879Z,15.41
2022-09-25T13:14:06.069Z,15.43
2022-09-25T13:16:35.504Z,15.47
2022-09-25T13:19:26.398Z,15.48
2022-09-25T13:22:07.620Z,15.49
2022-09-25T13:24:47.071Z,15.49
2022-09-25T13:27:22.267Z,15.49
2022-09-25T13:29:58.254Z,15.49
2022-09-25T13:32:33.811Z,15.46
2022-09-25T13:35:06.453Z,15.44
2022-09-25T13:37:37.263Z,15.42
2022-09-25T13:40:41.517Z,15.40
2022-09-25T13:43:29.354Z,15.37
2022-09-25T13:46:21.535Z,15.34
2022-09-25T13:48:53.489Z,15.34
2022-09-25T13:51:26.528Z,15.36
2022-09-25T13:54:05.212Z,15.36
2022-09-25T13:56:45.824Z,15.36
2022-09-25T13:59:22.319Z,15.37
2022-09-25T14:01:58.780Z,15.39
2022-09-25T14:04:34.089Z,15.39
2022-09-25T14:07:13.298Z,15.38
2022-09-25T14:09:46.209Z,15.37
2022-09-25T14:12:36.287Z,15.36
2022-09-25T14:15:11.399Z,15.35
2022-09-25T14:17:43.563Z,15.35
2022-09-25T14:20:25.799Z,15.34
2022-09-25T14:22:56.723Z,15.34
2022-09-25T14:25:40.576Z,15.32
2022-09-25T14:28:23.314Z,15.29
2022-09-25T14:31:30.624Z,15.24
2022-09-25T14:34:32.222Z,15.20
2022-09-25T14:37:33.331Z,15.17
2022-09-25T14:40:39.140Z,15.15
2022-09-25T14:46:16.770Z,15.12
2022-09-25T14:48:50.644Z,15.09
2022-09-25T14:51:47.218Z,15.08
2022-09-25T14:54:24.325Z,15.06
2022-09-25T14:56:56.294Z,15.04
2022-09-25T14:59:40.209Z,15.01
2022-09-25T15:02:23.274Z,14.97
2022-09-25T15:04:52.597Z,14.94
2022-09-25T15:07:25.735Z,14.93
2022-09-25T15:09:57.695Z,14.90
2022-09-25T15:12:36.153Z,14.89
2022-09-25T15:15:12.651Z,14.89
2022-09-25T15:17:57.230Z,14.90
2022-09-25T15:20:30.868Z,14.91
2022-09-25T15:23:10.122Z,14.88
2022-09-25T15:25:42.582Z,14.87
2022-09-25T15:28:16.782Z,14.83
2022-09-25T15:30:52.160Z,14.79
2022-09-25T15:33:30.312Z,14.71
2022-09-25T15:36:03.311Z,14.61
2022-09-25T15:38:35.513Z,14.54
2022-09-25T15:41:11.481Z,14.48
2022-09-25T15:43:41.798Z,14.46
2022-09-25T15:46:19.300Z,14.42
2022-09-25T15:48:54.988Z,14.38
2022-09-25T15:51:32.894Z,14.32
2022-09-25T15:54:05.479Z,14.24
2022-09-25T15:56:54.533Z,14.16
2022-09-25T15:59:39.980Z,14.09
2022-09-25T16:02:37.666Z,13.93
2022-09-25T16:05:10.354Z,13.84
2022-09-25T16:07:40.719Z,13.67
2022-09-25T16:10:21.461Z,13.50
2022-09-25T16:12:51.536Z,13.36
2022-09-25T16:15:44.471Z,13.20
2022-09-25T16:18:28.884Z,13.07
2022-09-25T16:21:21.864Z,12.96
2022-09-25T16:24:00.880Z,12.84
2022-09-25T16:26:40.234Z,12.76
2022-09-25T16:29:22.599Z,12.69
2022-09-25T16:31:53.591Z,12.65
2022-09-25T16:34:37.166Z,12.56
2022-09-25T16:37:10.461Z,12.47
2022-09-25T16:39:39.901Z,12.38
2022-09-25T16:42:33.176Z,12.27
2022-09-25T16:45:06.372Z,12.20
2022-09-25T16:47:36.421Z,12.16
2022-09-25T16:50:06.110Z,12.08
2022-09-25T16:52:35.539Z,11.97
2022-09-25T16:55:10.089Z,11.94
2022-09-25T16:57:45.816Z,11.88
2022-09-25T17:00:19.199Z,11.78
2022-09-25T17:02:48.859Z,11.71
2022-09-25T17:05:23.343Z,11.69
2022-09-25T17:07:57.172Z,11.70
2022-09-25T17:10:29.162Z,11.69
2022-09-25T17:13:00.681Z,11.66
2022-09-25T17:15:33.131Z,11.64
2022-09-25T17:18:04.006Z,11.66
2022-09-25T17:20:33.761Z,11.66
2022-09-25T17:23:02.884Z,11.65
2022-09-25T17:25:48.251Z,11.64
2022-09-25T17:28:17.289Z,11.63
2022-09-25T17:30:47.009Z,11.60
2022-09-25T17:33:19.112Z,11.60
2022-09-25T17:36:03.073Z,11.59
2022-09-25T17:38:34.290Z,11.59
2022-09-25T17:41:07.677Z,11.58
2022-09-25T17:43:40.477Z,11.54
2022-09-25T17:46:09.811Z,11.52
2022-09-25T17:48:39.342Z,11.46
2022-09-25T17:51:23.828Z,11.41
2022-09-25T17:53:53.628Z,11.41
2022-09-25T17:56:25.310Z,11.41
2022-09-25T17:58:57.083Z,11.39
2022-09-25T18:01:28.977Z,11.34
2022-09-25T18:04:00.586Z,11.32
2022-09-25T18:06:30.606Z,11.28
2022-09-25T18:09:00.155Z,11.23
2022-09-25T18:11:30.034Z,11.20
2022-09-25T18:14:01.774Z,11.16
2022-09-25T18:16:32.506Z,11.13
2022-09-25T18:19:22.319Z,11.08
2022-09-25T18:22:10.825Z,11.07
2022-09-25T18:24:42.082Z,11.03
2022-09-25T18:27:11.915Z,11.00
2022-09-25T18:29:41.942Z,10.96
2022-09-25T18:32:10.960Z,10.96
2022-09-25T18:34:41.359Z,10.95
2022-09-25T18:37:11.884Z,10.90
2022-09-25T18:39:43.005Z,10.87
2022-09-25T18:42:11.813Z,10.84
2022-09-25T18:44:43.258Z,10.78
2022-09-25T18:47:13.308Z,10.74
2022-09-25T18:49:45.195Z,10.69
2022-09-25T18:52:15.634Z,10.63
2022-09-25T18:54:46.106Z,10.58
2022-09-25T18:57:16.093Z,10.55
2022-09-25T18:59:45.728Z,10.57
2022-09-25T19:02:29.293Z,10.58
2022-09-25T19:04:59.590Z,10.59
2022-09-25T19:07:29.784Z,10.60
2022-09-25T19:10:00.874Z,10.63
2022-09-25T19:12:32.382Z,10.65
2022-09-25T19:15:03.673Z,10.64
2022-09-25T19:17:35.958Z,10.63
2022-09-25T19:20:06.524Z,10.66
2022-09-25T19:22:36.195Z,10.69
2022-09-25T19:25:07.429Z,10.75
2022-09-25T19:27:38.353Z,10.76
2022-09-25T19:30:08.375Z,10.79
2022-09-25T19:32:38.315Z,10.81
2022-09-25T19:35:10.279Z,10.83
2022-09-25T19:37:41.584Z,10.83
2022-09-25T19:40:32.143Z,10.85
2022-09-25T19:43:02.019Z,10.88
2022-09-25T19:45:32.002Z,10.90
2022-09-25T19:48:00.822Z,10.89
2022-09-25T19:50:30.544Z,10.90
2022-09-25T19:53:01.056Z,10.91
2022-09-25T19:55:31.481Z,10.91
2022-09-25T19:58:00.333Z,10.92
2022-09-25T20:00:29.002Z,10.95
2022-09-25T20:02:58.328Z,10.98
2022-09-25T20:05:27.252Z,11.03
2022-09-25T20:07:56.910Z,11.04
2022-09-25T20:10:27.078Z,11.07
2022-09-25T20:12:56.809Z,11.09
2022-09-25T20:15:27.370Z,11.11
2022-09-25T20:17:56.962Z,11.13
2022-09-25T20:20:28.392Z,11.13
2022-09-25T20:22:58.071Z,11.12
2022-09-25T20:25:27.753Z,11.11
2022-09-25T20:27:57.269Z,11.08
2022-09-25T20:30:26.373Z,11.07
2022-09-25T20:32:56.857Z,11.09
2022-09-25T20:35:26.351Z,11.10
2022-09-25T20:37:56.828Z,11.09
2022-09-25T20:40:27.561Z,11.06
2022-09-25T20:42:56.960Z,11.00
2022-09-25T20:45:26.119Z,11.02
2022-09-25T20:47:55.600Z,11.04
2022-09-25T20:50:24.291Z,11.05
2022-09-25T20:52:55.339Z,11.06
2022-09-25T20:55:25.509Z,11.05
2022-09-25T20:57:54.412Z,11.06
2022-09-25T21:00:24.334Z,11.03
2022-09-25T21:02:53.799Z,11.04
2022-09-25T21:05:22.743Z,11.06
2022-09-25T21:07:52.893Z,11.07
2022-09-25T21:10:23.531Z,11.06
2022-09-25T21:12:53.046Z,11.04
2022-09-25T21:15:22.429Z,11.04
2022-09-25T21:17:54.056Z,11.06
2022-09-25T21:20:23.256Z,11.07
2022-09-25T21:22:52.120Z,11.10
2022-09-25T21:25:21.270Z,11.14
2022-09-25T21:27:51.375Z,11.17
2022-09-25T21:30:20.512Z,11.20
2022-09-25T21:32:49.644Z,11.21
2022-09-25T21:35:18.652Z,11.22
2022-09-25T21:37:47.615Z,11.25
2022-09-25T21:40:17.422Z,11.26
2022-09-25T21:42:46.148Z,11.26
2022-09-25T21:45:15.276Z,11.26
2022-09-25T21:47:45.456Z,11.27
2022-09-25T21:50:15.637Z,11.28
2022-09-25T21:52:44.865Z,11.28
2022-09-25T21:55:14.393Z,11.29
2022-09-25T21:57:44.766Z,11.30
2022-09-25T22:00:16.574Z,11.31
2022-09-25T22:02:48.041Z,11.31
2022-09-25T22:05:17.142Z,11.31
2022-09-25T22:07:47.003Z,11.33
2022-09-25T22:10:16.448Z,11.34
2022-09-25T22:12:46.883Z,11.36
2022-09-25T22:15:17.848Z,11.38
2022-09-25T22:17:46.962Z,11.40
2022-09-25T22:20:16.497Z,11.39
2022-09-25T22:22:48.557Z,11.41
2022-09-25T22:25:19.238Z,11.41
2022-09-25T22:27:48.335Z,11.42
2022-09-25T22:30:17.629Z,11.42
2022-09-25T22:32:47.189Z,11.41
2022-09-25T22:35:17.245Z,11.40
2022-09-25T22:37:46.798Z,11.41
2022-09-25T22:40:16.418Z,11.44
2022-09-25T22:42:45.736Z,11.46
2022-09-25T22:45:17.106Z,11.46
2022-09-25T22:47:46.246Z,11.48
2022-09-25T22:50:15.105Z,11.50
2022-09-25T22:52:43.994Z,11.50
2022-09-25T22:55:13.541Z,11.50
2022-09-25T22:57:42.755Z,11.51
2022-09-25T23:00:13.304Z,11.51
2022-09-25T23:02:43.298Z,11.49
2022-09-25T23:05:12.317Z,11.48
2022-09-25T23:07:42.757Z,11.49
2022-09-25T23:10:12.116Z,11.49
2022-09-25T23:12:42.306Z,11.49
2022-09-25T23:15:11.357Z,11.48
2022-09-25T23:17:41.082Z,11.49
2022-09-25T23:20:10.340Z,11.49
2022-09-25T23:22:38.931Z,11.50
2022-09-25T23:25:09.012Z,11.50
2022-09-25T23:27:38.980Z,11.52
2022-09-25T23:30:09.550Z,11.52
2022-09-25T23:32:39.278Z,11.53
2022-09-25T23:35:10.293Z,11.55
2022-09-25T23:37:39.532Z,11.56
2022-09-25T23:40:15.241Z,11.53
2022-09-25T23:42:41.680Z,11.54
2022-09-25T23:45:12.322Z,11.54
2022-09-25T23:47:43.229Z,11.55
2022-09-25T23:50:12.372Z,11.55
2022-09-25T23:52:41.483Z,11.54
2022-09-25T23:55:10.974Z,11.57
2022-09-25T23:57:39.920Z,11.58
